sensor_id;sensor_type;location;lat;lon;timestamp;pressure;altitude;pressure_sealevel;temperature;humidity
9281;BME280;4679;47.966;7.958;2023-01-31T07:16:00;98251.28;;;-2.17;85.86
9281;BME280;4679;47.966;7.958;2023-01-31T07:18:02;98246.47;;;-2.12;85.69
9281;BME280;4679;47.966;7.958;2023-01-31T07:20:05;98248.56;;;-2.15;86.18
9281;BME280;4679;47.966;7.958;2023-01-31T07:22:06;98244.44;;;-2.18;86.27
9281;BME280;4679;47.966;7.958;2023-01-31T07:24:08;98247.72;;;-2.16;85.86
9281;BME280;4679;47.966;7.958;2023-01-31T07:26:10;98249.38;;;-2.15;85.49
9281;BME280;4679;47.966;7.958;2023-01-31T07:28:12;98248.13;;;-2.20;85.98
9281;BME280;4679;47.966;7.958;2023-01-31T07:30:14;98237.03;;;-2.22;86.03
9281;BME280;4679;47.966;7.958;2023-01-31T07:32:17;98239.91;;;-2.25;85.75
9281;BME280;4679;47.966;7.958;2023-01-31T07:34:19;98243.31;;;-2.25;85.79
9281;BME280;4679;47.966;7.958;2023-01-31T07:36:22;98245.66;;;-2.22;86.26
9281;BME280;4679;47.966;7.958;2023-01-31T07:38:25;98248.25;;;-2.22;86.25
9281;BME280;4679;47.966;7.958;2023-01-31T07:40:27;98244.72;;;-2.21;86.45
9281;BME280;4679;47.966;7.958;2023-01-31T07:42:29;98251.28;;;-2.17;85.98
9281;BME280;4679;47.966;7.958;2023-01-31T07:44:30;98260.28;;;-2.11;86.21
9281;BME280;4679;47.966;7.958;2023-01-31T07:46:32;98265.78;;;-2.04;85.93
9281;BME280;4679;47.966;7.958;2023-01-31T07:48:35;98262.94;;;-2.01;85.40
9281;BME280;4679;47.966;7.958;2023-01-31T07:50:37;98263.44;;;-1.98;86.23
9281;BME280;4679;47.966;7.958;2023-01-31T07:52:38;98260.03;;;-1.98;85.96
9281;BME280;4679;47.966;7.958;2023-01-31T07:54:40;98257.84;;;-1.93;86.07
9281;BME280;4679;47.966;7.958;2023-01-31T07:56:41;98266.06;;;-1.88;85.73
9281;BME280;4679;47.966;7.958;2023-01-31T07:58:44;98265.94;;;-1.87;85.35
9281;BME280;4679;47.966;7.958;2023-01-31T08:00:46;98259.66;;;-1.84;85.64
9281;BME280;4679;47.966;7.958;2023-01-31T08:03:10;98258.38;;;-1.80;85.58
9281;BME280;4679;47.966;7.958;2023-01-31T08:05:33;98259.75;;;-1.76;85.84
9281;BME280;4679;47.966;7.958;2023-01-31T08:07:34;98265.66;;;-1.74;85.79
9281;BME280;4679;47.966;7.958;2023-01-31T08:09:36;98260.88;;;-1.69;85.41
9281;BME280;4679;47.966;7.958;2023-01-31T08:11:38;98257.00;;;-1.65;85.42
9281;BME280;4679;47.966;7.958;2023-01-31T08:13:40;98256.75;;;-1.62;85.54
9281;BME280;4679;47.966;7.958;2023-01-31T08:15:41;98264.78;;;-1.46;85.72
9281;BME280;4679;47.966;7.958;2023-01-31T08:17:43;98270.66;;;-1.34;85.43
9281;BME280;4679;47.966;7.958;2023-01-31T08:19:45;98278.06;;;-1.29;84.81
9281;BME280;4679;47.966;7.958;2023-01-31T08:21:48;98284.34;;;-1.22;85.43
9281;BME280;4679;47.966;7.958;2023-01-31T08:23:50;98277.34;;;-1.12;85.25
9281;BME280;4679;47.966;7.958;2023-01-31T08:25:51;98286.06;;;-1.03;85.20
9281;BME280;4679;47.966;7.958;2023-01-31T08:27:53;98282.31;;;-0.91;85.00
9281;BME280;4679;47.966;7.958;2023-01-31T08:29:55;98286.97;;;-0.85;84.87
9281;BME280;4679;47.966;7.958;2023-01-31T08:31:56;98286.00;;;-0.84;84.79
9281;BME280;4679;47.966;7.958;2023-01-31T08:33:58;98270.78;;;-0.79;84.88
9281;BME280;4679;47.966;7.958;2023-01-31T08:36:07;98267.25;;;-0.60;84.87
9281;BME280;4679;47.966;7.958;2023-01-31T08:38:10;98266.25;;;-0.50;84.73
9281;BME280;4679;47.966;7.958;2023-01-31T08:40:12;98270.69;;;-0.32;84.78
9281;BME280;4679;47.966;7.958;2023-01-31T08:42:14;98277.53;;;-0.14;84.15
9281;BME280;4679;47.966;7.958;2023-01-31T08:44:16;98263.50;;;-0.03;83.69
9281;BME280;4679;47.966;7.958;2023-01-31T08:46:17;98259.00;;;0.07;83.89
9281;BME280;4679;47.966;7.958;2023-01-31T08:48:19;98263.03;;;0.19;83.89
9281;BME280;4679;47.966;7.958;2023-01-31T08:50:21;98251.38;;;0.31;84.05
9281;BME280;4679;47.966;7.958;2023-01-31T08:52:24;98247.59;;;0.44;83.49
9281;BME280;4679;47.966;7.958;2023-01-31T08:54:27;98236.88;;;0.55;83.61
9281;BME280;4679;47.966;7.958;2023-01-31T08:56:28;98237.59;;;0.65;83.22
9281;BME280;4679;47.966;7.958;2023-01-31T08:58:31;98240.63;;;0.78;82.99
9281;BME280;4679;47.966;7.958;2023-01-31T09:00:33;98228.78;;;0.92;83.40
9281;BME280;4679;47.966;7.958;2023-01-31T09:02:35;98226.75;;;1.03;83.41
9281;BME280;4679;47.966;7.958;2023-01-31T09:04:37;98231.69;;;1.15;82.80
9281;BME280;4679;47.966;7.958;2023-01-31T09:06:39;98237.44;;;1.26;82.40
9281;BME280;4679;47.966;7.958;2023-01-31T09:08:40;98236.69;;;1.34;83.01
9281;BME280;4679;47.966;7.958;2023-01-31T09:10:50;98229.34;;;1.46;82.38
9281;BME280;4679;47.966;7.958;2023-01-31T09:12:52;98237.88;;;1.56;82.26
9281;BME280;4679;47.966;7.958;2023-01-31T09:14:53;98235.47;;;1.62;82.04
9281;BME280;4679;47.966;7.958;2023-01-31T09:16:55;98239.25;;;1.76;82.09
9281;BME280;4679;47.966;7.958;2023-01-31T09:18:57;98250.38;;;1.86;81.56
9281;BME280;4679;47.966;7.958;2023-01-31T09:21:02;98246.16;;;1.93;81.84
9281;BME280;4679;47.966;7.958;2023-01-31T09:23:04;98245.19;;;2.02;81.97
9281;BME280;4679;47.966;7.958;2023-01-31T09:25:07;98242.09;;;2.07;81.93
9281;BME280;4679;47.966;7.958;2023-01-31T09:27:10;98237.81;;;2.14;81.21
9281;BME280;4679;47.966;7.958;2023-01-31T09:29:12;98243.06;;;2.22;81.05
9281;BME280;4679;47.966;7.958;2023-01-31T09:31:15;98235.22;;;2.30;81.22
9281;BME280;4679;47.966;7.958;2023-01-31T09:33:18;98249.13;;;2.39;80.89
9281;BME280;4679;47.966;7.958;2023-01-31T09:35:20;98239.97;;;2.51;80.30
9281;BME280;4679;47.966;7.958;2023-01-31T09:37:21;98243.88;;;2.63;81.01
9281;BME280;4679;47.966;7.958;2023-01-31T09:39:23;98228.97;;;2.72;80.17
9281;BME280;4679;47.966;7.958;2023-01-31T09:41:31;98235.34;;;2.77;80.09
9281;BME280;4679;47.966;7.958;2023-01-31T09:43:38;98228.66;;;2.67;80.15
9281;BME280;4679;47.966;7.958;2023-01-31T09:45:43;98231.44;;;2.65;80.01
9281;BME280;4679;47.966;7.958;2023-01-31T09:47:48;98234.34;;;2.78;79.93
9281;BME280;4679;47.966;7.958;2023-01-31T09:49:54;98218.47;;;2.88;79.96
9281;BME280;4679;47.966;7.958;2023-01-31T09:51:58;98219.91;;;2.91;79.59
9281;BME280;4679;47.966;7.958;2023-01-31T09:54:02;98219.59;;;2.94;79.61
9281;BME280;4679;47.966;7.958;2023-01-31T09:56:20;98226.09;;;3.06;79.44
9281;BME280;4679;47.966;7.958;2023-01-31T09:58:31;98220.47;;;3.25;79.25
9281;BME280;4679;47.966;7.958;2023-01-31T10:00:42;98215.25;;;3.17;78.95
9281;BME280;4679;47.966;7.958;2023-01-31T10:05:21;98217.28;;;3.38;79.05
9281;BME280;4679;47.966;7.958;2023-01-31T10:07:28;98227.16;;;3.36;79.24
9281;BME280;4679;47.966;7.958;2023-01-31T10:09:35;98221.44;;;3.32;79.17
9281;BME280;4679;47.966;7.958;2023-01-31T10:11:40;98217.44;;;3.44;78.85
9281;BME280;4679;47.966;7.958;2023-01-31T10:13:47;98213.78;;;3.53;78.82
9281;BME280;4679;47.966;7.958;2023-01-31T10:15:55;98227.59;;;3.78;78.22
9281;BME280;4679;47.966;7.958;2023-01-31T10:18:02;98226.72;;;3.86;78.00
9281;BME280;4679;47.966;7.958;2023-01-31T10:20:09;98234.44;;;3.87;77.84
9281;BME280;4679;47.966;7.958;2023-01-31T10:22:21;98226.34;;;3.97;77.63
9281;BME280;4679;47.966;7.958;2023-01-31T10:24:28;98240.75;;;4.01;77.13
9281;BME280;4679;47.966;7.958;2023-01-31T10:26:33;98232.53;;;4.04;76.73
9281;BME280;4679;47.966;7.958;2023-01-31T10:28:40;98233.34;;;4.28;76.29
9281;BME280;4679;47.966;7.958;2023-01-31T10:30:48;98238.00;;;4.40;76.60
9281;BME280;4679;47.966;7.958;2023-01-31T10:32:57;98240.03;;;4.30;75.82
9281;BME280;4679;47.966;7.958;2023-01-31T10:35:03;98249.72;;;4.30;76.17
9281;BME280;4679;47.966;7.958;2023-01-31T10:37:13;98235.84;;;4.21;75.92
9281;BME280;4679;47.966;7.958;2023-01-31T10:39:21;98241.31;;;4.34;76.45
9281;BME280;4679;47.966;7.958;2023-01-31T10:41:33;98243.91;;;4.42;75.56
9281;BME280;4679;47.966;7.958;2023-01-31T10:43:46;98235.72;;;4.37;75.54
9281;BME280;4679;47.966;7.958;2023-01-31T10:45:49;98226.59;;;4.48;75.62
9281;BME280;4679;47.966;7.958;2023-01-31T10:47:54;98225.41;;;4.36;76.00
9281;BME280;4679;47.966;7.958;2023-01-31T10:50:01;98218.31;;;4.36;75.60
9281;BME280;4679;47.966;7.958;2023-01-31T10:52:17;98215.63;;;4.44;75.42
9281;BME280;4679;47.966;7.958;2023-01-31T10:54:37;98211.34;;;4.43;75.62
9281;BME280;4679;47.966;7.958;2023-01-31T10:56:45;98201.66;;;4.44;75.53
9281;BME280;4679;47.966;7.958;2023-01-31T10:58:48;98192.44;;;4.48;75.40
9281;BME280;4679;47.966;7.958;2023-01-31T11:00:51;98193.81;;;4.58;75.36
9281;BME280;4679;47.966;7.958;2023-01-31T11:02:54;98192.38;;;4.56;75.23
9281;BME280;4679;47.966;7.958;2023-01-31T11:04:58;98191.28;;;4.50;75.54
9281;BME280;4679;47.966;7.958;2023-01-31T11:07:00;98185.84;;;4.52;74.96
9281;BME280;4679;47.966;7.958;2023-01-31T11:09:03;98197.53;;;4.49;75.53
9281;BME280;4679;47.966;7.958;2023-01-31T11:11:08;98197.06;;;4.60;74.89
9281;BME280;4679;47.966;7.958;2023-01-31T11:13:17;98197.84;;;4.69;75.12
9281;BME280;4679;47.966;7.958;2023-01-31T11:15:19;98207.28;;;4.93;74.49
9281;BME280;4679;47.966;7.958;2023-01-31T11:17:23;98206.53;;;5.28;73.87
9281;BME280;4679;47.966;7.958;2023-01-31T11:19:31;98206.03;;;5.54;73.27
9281;BME280;4679;47.966;7.958;2023-01-31T11:21:35;98201.56;;;5.70;73.39
9281;BME280;4679;47.966;7.958;2023-01-31T11:23:37;98197.69;;;5.87;71.98
9281;BME280;4679;47.966;7.958;2023-01-31T11:25:45;98190.16;;;5.84;72.55
9281;BME280;4679;47.966;7.958;2023-01-31T11:27:51;98196.59;;;5.96;71.73
9281;BME280;4679;47.966;7.958;2023-01-31T11:29:55;98189.34;;;5.98;70.91
9281;BME280;4679;47.966;7.958;2023-01-31T11:31:59;98192.66;;;6.28;71.03
9281;BME280;4679;47.966;7.958;2023-01-31T11:34:03;98188.38;;;6.27;71.03
9281;BME280;4679;47.966;7.958;2023-01-31T11:36:08;98199.09;;;6.47;70.76
9281;BME280;4679;47.966;7.958;2023-01-31T11:38:19;98199.97;;;6.54;70.79
9281;BME280;4679;47.966;7.958;2023-01-31T11:40:27;98201.81;;;6.32;70.18
9281;BME280;4679;47.966;7.958;2023-01-31T11:42:30;98195.88;;;6.23;70.87
9281;BME280;4679;47.966;7.958;2023-01-31T11:44:32;98201.69;;;6.40;69.84
9281;BME280;4679;47.966;7.958;2023-01-31T11:46:42;98209.28;;;6.50;69.86
9281;BME280;4679;47.966;7.958;2023-01-31T11:48:44;98203.06;;;6.36;69.36
9281;BME280;4679;47.966;7.958;2023-01-31T11:50:51;98196.63;;;6.17;70.35
9281;BME280;4679;47.966;7.958;2023-01-31T11:52:57;98189.91;;;6.15;70.76
9281;BME280;4679;47.966;7.958;2023-01-31T11:55:03;98194.31;;;6.08;70.74
9281;BME280;4679;47.966;7.958;2023-01-31T11:57:13;98191.50;;;6.09;69.61
9281;BME280;4679;47.966;7.958;2023-01-31T11:59:19;98188.59;;;6.04;69.32
9281;BME280;4679;47.966;7.958;2023-01-31T12:01:24;98186.44;;;6.14;70.04
9281;BME280;4679;47.966;7.958;2023-01-31T12:03:27;98184.19;;;6.32;69.05
9281;BME280;4679;47.966;7.958;2023-01-31T12:05:34;98199.19;;;6.32;68.44
9281;BME280;4679;47.966;7.958;2023-01-31T12:07:42;98190.47;;;6.59;69.03
9281;BME280;4679;47.966;7.958;2023-01-31T12:09:46;98182.63;;;6.66;69.03
9281;BME280;4679;47.966;7.958;2023-01-31T12:11:50;98181.91;;;6.51;68.93
9281;BME280;4679;47.966;7.958;2023-01-31T12:14:00;98175.00;;;6.50;68.38
9281;BME280;4679;47.966;7.958;2023-01-31T12:16:04;98152.84;;;6.72;67.68
9281;BME280;4679;47.966;7.958;2023-01-31T12:18:09;98148.47;;;6.58;68.18
9281;BME280;4679;47.966;7.958;2023-01-31T12:20:19;98135.84;;;6.47;68.32
9281;BME280;4679;47.966;7.958;2023-01-31T12:22:28;98144.53;;;6.41;68.44
9281;BME280;4679;47.966;7.958;2023-01-31T12:24:40;98146.28;;;6.33;69.14
9281;BME280;4679;47.966;7.958;2023-01-31T12:26:48;98144.66;;;6.32;68.65
9281;BME280;4679;47.966;7.958;2023-01-31T12:29:05;98131.94;;;6.15;68.60
9281;BME280;4679;47.966;7.958;2023-01-31T12:31:27;98132.00;;;6.00;69.08
9281;BME280;4679;47.966;7.958;2023-01-31T12:33:45;98116.34;;;5.92;68.21
9281;BME280;4679;47.966;7.958;2023-01-31T12:36:10;98117.88;;;5.86;69.37
9281;BME280;4679;47.966;7.958;2023-01-31T12:38:27;98107.72;;;5.83;68.33
9281;BME280;4679;47.966;7.958;2023-01-31T12:40:36;98117.44;;;5.61;69.40
9281;BME280;4679;47.966;7.958;2023-01-31T12:42:54;98118.50;;;5.67;68.70
9281;BME280;4679;47.966;7.958;2023-01-31T12:45:06;98117.31;;;5.70;68.52
9281;BME280;4679;47.966;7.958;2023-01-31T12:47:33;98116.19;;;5.79;68.49
9281;BME280;4679;47.966;7.958;2023-01-31T12:49:47;98109.16;;;5.86;67.76
9281;BME280;4679;47.966;7.958;2023-01-31T12:51:57;98109.50;;;5.76;68.96
9281;BME280;4679;47.966;7.958;2023-01-31T12:54:10;98128.78;;;5.62;69.22
9281;BME280;4679;47.966;7.958;2023-01-31T12:56:32;98133.09;;;5.48;68.05
9281;BME280;4679;47.966;7.958;2023-01-31T12:58:45;98131.75;;;5.38;68.34
9281;BME280;4679;47.966;7.958;2023-01-31T13:00:54;98136.47;;;5.42;68.25
9281;BME280;4679;47.966;7.958;2023-01-31T13:03:08;98128.06;;;5.53;68.42
9281;BME280;4679;47.966;7.958;2023-01-31T13:05:23;98129.53;;;5.56;68.67
9281;BME280;4679;47.966;7.958;2023-01-31T13:07:29;98128.84;;;5.47;68.20
9281;BME280;4679;47.966;7.958;2023-01-31T13:09:34;98126.84;;;5.49;67.63
9281;BME280;4679;47.966;7.958;2023-01-31T13:11:39;98109.03;;;5.51;67.58
9281;BME280;4679;47.966;7.958;2023-01-31T13:13:45;98095.09;;;5.36;67.72
9281;BME280;4679;47.966;7.958;2023-01-31T13:15:51;98087.25;;;5.21;68.45
9281;BME280;4679;47.966;7.958;2023-01-31T13:17:59;98078.47;;;5.14;68.24
9281;BME280;4679;47.966;7.958;2023-01-31T13:20:20;98077.53;;;5.22;68.80
9281;BME280;4679;47.966;7.958;2023-01-31T13:22:26;98086.16;;;5.30;68.67
9281;BME280;4679;47.966;7.958;2023-01-31T13:24:32;98084.56;;;5.36;67.55
9281;BME280;4679;47.966;7.958;2023-01-31T13:26:41;98096.00;;;5.43;68.37
9281;BME280;4679;47.966;7.958;2023-01-31T13:28:47;98098.00;;;5.41;67.84
9281;BME280;4679;47.966;7.958;2023-01-31T13:30:54;98113.63;;;5.28;67.38
9281;BME280;4679;47.966;7.958;2023-01-31T13:32:57;98115.63;;;5.26;68.13
9281;BME280;4679;47.966;7.958;2023-01-31T13:35:04;98116.00;;;5.23;67.76
9281;BME280;4679;47.966;7.958;2023-01-31T13:37:12;98115.19;;;5.22;67.68
9281;BME280;4679;47.966;7.958;2023-01-31T13:39:22;98109.28;;;5.20;68.04
9281;BME280;4679;47.966;7.958;2023-01-31T13:41:27;98105.22;;;5.18;67.62
9281;BME280;4679;47.966;7.958;2023-01-31T13:43:29;98100.53;;;5.13;67.30
9281;BME280;4679;47.966;7.958;2023-01-31T13:45:37;98095.63;;;5.10;68.11
9281;BME280;4679;47.966;7.958;2023-01-31T13:47:46;98099.25;;;5.09;67.94
9281;BME280;4679;47.966;7.958;2023-01-31T13:49:53;98075.41;;;5.11;67.51
9281;BME280;4679;47.966;7.958;2023-01-31T13:51:58;98091.53;;;5.08;67.98
9281;BME280;4679;47.966;7.958;2023-01-31T13:54:04;98086.09;;;5.09;67.49
9281;BME280;4679;47.966;7.958;2023-01-31T13:56:09;98080.69;;;5.32;66.90
9281;BME280;4679;47.966;7.958;2023-01-31T13:58:16;98079.63;;;5.26;67.91
9281;BME280;4679;47.966;7.958;2023-01-31T14:00:33;98074.34;;;5.26;66.86
9281;BME280;4679;47.966;7.958;2023-01-31T14:02:38;98088.16;;;5.28;67.07
9281;BME280;4679;47.966;7.958;2023-01-31T14:04:40;98079.63;;;5.26;67.86
9281;BME280;4679;47.966;7.958;2023-01-31T14:09:24;98052.63;;;5.60;66.45
9281;BME280;4679;47.966;7.958;2023-01-31T14:11:32;98050.13;;;5.95;66.65
9281;BME280;4679;47.966;7.958;2023-01-31T14:13:40;98051.94;;;5.94;65.73
9281;BME280;4679;47.966;7.958;2023-01-31T14:15:46;98051.03;;;5.87;65.87
9281;BME280;4679;47.966;7.958;2023-01-31T14:18:00;98060.88;;;6.00;66.08
9281;BME280;4679;47.966;7.958;2023-01-31T14:20:05;98060.84;;;5.93;66.75
9281;BME280;4679;47.966;7.958;2023-01-31T14:22:13;98050.72;;;5.97;66.82
9281;BME280;4679;47.966;7.958;2023-01-31T14:27:12;98057.31;;;6.08;65.36
9281;BME280;4679;47.966;7.958;2023-01-31T14:29:17;98060.50;;;6.03;65.26
9281;BME280;4679;47.966;7.958;2023-01-31T14:31:20;98050.31;;;5.93;65.40
9281;BME280;4679;47.966;7.958;2023-01-31T14:33:27;98052.00;;;5.80;65.86
9281;BME280;4679;47.966;7.958;2023-01-31T14:35:45;98054.19;;;5.76;66.23
9281;BME280;4679;47.966;7.958;2023-01-31T14:37:56;98056.13;;;5.68;65.93
9281;BME280;4679;47.966;7.958;2023-01-31T14:40:14;98048.22;;;5.68;66.23
9281;BME280;4679;47.966;7.958;2023-01-31T14:44:53;98051.81;;;5.60;66.88
9281;BME280;4679;47.966;7.958;2023-01-31T14:47:19;98036.41;;;5.57;65.90
9281;BME280;4679;47.966;7.958;2023-01-31T14:49:44;98046.75;;;5.58;65.82
9281;BME280;4679;47.966;7.958;2023-01-31T14:52:09;98036.31;;;5.50;66.87
9281;BME280;4679;47.966;7.958;2023-01-31T14:54:39;98030.84;;;5.45;65.87
9281;BME280;4679;47.966;7.958;2023-01-31T14:57:14;98040.53;;;5.45;66.88
9281;BME280;4679;47.966;7.958;2023-01-31T14:59:26;98039.28;;;5.41;66.74
9281;BME280;4679;47.966;7.958;2023-01-31T15:01:32;98046.09;;;5.35;66.30
9281;BME280;4679;47.966;7.958;2023-01-31T15:03:37;98042.88;;;5.33;66.65
9281;BME280;4679;47.966;7.958;2023-01-31T15:05:43;98047.31;;;5.33;66.24
9281;BME280;4679;47.966;7.958;2023-01-31T15:08:02;98048.69;;;5.28;67.13
9281;BME280;4679;47.966;7.958;2023-01-31T15:10:04;98044.59;;;5.26;65.91
9281;BME280;4679;47.966;7.958;2023-01-31T15:14:41;98037.72;;;5.25;66.58
9281;BME280;4679;47.966;7.958;2023-01-31T15:16:54;98036.44;;;5.21;66.45
9281;BME280;4679;47.966;7.958;2023-01-31T15:19:03;98050.34;;;5.15;66.08
9281;BME280;4679;47.966;7.958;2023-01-31T15:21:09;98049.28;;;5.09;67.23
9281;BME280;4679;47.966;7.958;2023-01-31T15:23:20;98046.19;;;5.06;66.54
9281;BME280;4679;47.966;7.958;2023-01-31T15:25:29;98051.44;;;5.06;66.45
9281;BME280;4679;47.966;7.958;2023-01-31T15:27:36;98051.09;;;5.09;66.90
9281;BME280;4679;47.966;7.958;2023-01-31T15:29:50;98038.75;;;5.09;67.29
9281;BME280;4679;47.966;7.958;2023-01-31T15:31:56;98048.28;;;5.10;66.77
9281;BME280;4679;47.966;7.958;2023-01-31T15:34:02;98050.53;;;5.13;66.45
9281;BME280;4679;47.966;7.958;2023-01-31T15:36:16;98048.72;;;5.14;66.70
9281;BME280;4679;47.966;7.958;2023-01-31T15:38:24;98032.56;;;5.17;66.82
9281;BME280;4679;47.966;7.958;2023-01-31T15:40:28;98027.94;;;5.19;66.34
9281;BME280;4679;47.966;7.958;2023-01-31T15:42:32;98027.94;;;5.19;66.29
9281;BME280;4679;47.966;7.958;2023-01-31T15:44:34;98028.13;;;5.17;66.80
9281;BME280;4679;47.966;7.958;2023-01-31T15:46:35;98030.13;;;5.15;65.98
9281;BME280;4679;47.966;7.958;2023-01-31T15:48:40;98021.41;;;5.15;67.08
9281;BME280;4679;47.966;7.958;2023-01-31T15:50:50;98027.31;;;5.17;66.88
9281;BME280;4679;47.966;7.958;2023-01-31T15:52:55;98025.31;;;5.19;66.53
9281;BME280;4679;47.966;7.958;2023-01-31T15:54:58;98040.66;;;5.15;66.76
9281;BME280;4679;47.966;7.958;2023-01-31T15:57:03;98025.25;;;5.12;66.71
9281;BME280;4679;47.966;7.958;2023-01-31T15:59:10;98021.78;;;5.12;66.78
9281;BME280;4679;47.966;7.958;2023-01-31T16:01:14;98016.53;;;5.12;66.59
9281;BME280;4679;47.966;7.958;2023-01-31T16:03:20;98010.44;;;5.11;66.09
9281;BME280;4679;47.966;7.958;2023-01-31T16:05:22;98011.44;;;5.10;66.36
9281;BME280;4679;47.966;7.958;2023-01-31T16:07:27;98007.38;;;5.08;66.85
9281;BME280;4679;47.966;7.958;2023-01-31T16:09:32;98005.09;;;5.05;66.88
9281;BME280;4679;47.966;7.958;2023-01-31T16:11:34;98005.50;;;5.02;66.16
9281;BME280;4679;47.966;7.958;2023-01-31T16:13:39;97998.78;;;4.99;65.95
9281;BME280;4679;47.966;7.958;2023-01-31T16:15:42;98000.78;;;4.97;66.16
9281;BME280;4679;47.966;7.958;2023-01-31T16:17:44;98005.25;;;4.97;67.11
9281;BME280;4679;47.966;7.958;2023-01-31T16:19:48;98011.69;;;4.94;66.38
9281;BME280;4679;47.966;7.958;2023-01-31T16:21:51;98002.97;;;4.93;66.41
9281;BME280;4679;47.966;7.958;2023-01-31T16:23:58;98016.13;;;4.93;66.60
9281;BME280;4679;47.966;7.958;2023-01-31T16:26:06;98029.09;;;4.95;66.56
9281;BME280;4679;47.966;7.958;2023-01-31T16:28:11;98029.53;;;4.99;66.71
9281;BME280;4679;47.966;7.958;2023-01-31T16:30:14;98019.22;;;4.97;66.62
9281;BME280;4679;47.966;7.958;2023-01-31T16:32:20;98022.66;;;4.98;65.83
9281;BME280;4679;47.966;7.958;2023-01-31T16:34:25;98028.28;;;4.94;65.81
9281;BME280;4679;47.966;7.958;2023-01-31T16:36:30;98045.03;;;4.93;65.96
9281;BME280;4679;47.966;7.958;2023-01-31T16:38:32;98051.13;;;4.94;65.79
9281;BME280;4679;47.966;7.958;2023-01-31T16:40:36;98059.00;;;4.94;66.78
9281;BME280;4679;47.966;7.958;2023-01-31T16:42:47;98058.38;;;4.92;66.51
9281;BME280;4679;47.966;7.958;2023-01-31T16:44:49;98068.72;;;4.93;66.32
9281;BME280;4679;47.966;7.958;2023-01-31T16:46:52;98065.91;;;4.95;65.94
9281;BME280;4679;47.966;7.958;2023-01-31T16:49:01;98065.53;;;4.98;66.05
9281;BME280;4679;47.966;7.958;2023-01-31T16:51:36;98087.41;;;4.99;66.25
9281;BME280;4679;47.966;7.958;2023-01-31T16:53:40;98085.59;;;4.99;66.46
9281;BME280;4679;47.966;7.958;2023-01-31T16:55:42;98089.22;;;4.98;65.66
9281;BME280;4679;47.966;7.958;2023-01-31T16:57:44;98091.22;;;4.96;66.02
9281;BME280;4679;47.966;7.958;2023-01-31T16:59:49;98107.16;;;4.94;67.00
9281;BME280;4679;47.966;7.958;2023-01-31T17:01:58;98099.63;;;4.91;66.04
9281;BME280;4679;47.966;7.958;2023-01-31T17:04:04;98099.81;;;4.90;66.73
9281;BME280;4679;47.966;7.958;2023-01-31T17:06:07;98105.28;;;4.88;66.57
9281;BME280;4679;47.966;7.958;2023-01-31T17:08:13;98122.25;;;4.86;66.24
9281;BME280;4679;47.966;7.958;2023-01-31T17:10:18;98134.56;;;4.85;66.83
9281;BME280;4679;47.966;7.958;2023-01-31T17:12:26;98133.09;;;4.83;66.99
9281;BME280;4679;47.966;7.958;2023-01-31T17:14:28;98133.09;;;4.83;67.08
9281;BME280;4679;47.966;7.958;2023-01-31T17:16:33;98136.91;;;4.80;66.87
9281;BME280;4679;47.966;7.958;2023-01-31T17:18:35;98130.84;;;4.80;66.78
9281;BME280;4679;47.966;7.958;2023-01-31T17:20:38;98133.47;;;4.80;66.72
9281;BME280;4679;47.966;7.958;2023-01-31T17:22:42;98132.00;;;4.77;67.20
9281;BME280;4679;47.966;7.958;2023-01-31T17:24:44;98125.13;;;4.76;66.92
9281;BME280;4679;47.966;7.958;2023-01-31T17:26:47;98129.75;;;4.74;67.79
9281;BME280;4679;47.966;7.958;2023-01-31T17:28:49;98129.94;;;4.73;67.53
9281;BME280;4679;47.966;7.958;2023-01-31T17:30:50;98129.50;;;4.69;68.01
9281;BME280;4679;47.966;7.958;2023-01-31T17:32:54;98127.50;;;4.71;67.30
9281;BME280;4679;47.966;7.958;2023-01-31T17:34:56;98123.25;;;4.70;67.12
9281;BME280;4679;47.966;7.958;2023-01-31T17:36:58;98120.97;;;4.67;67.62
9281;BME280;4679;47.966;7.958;2023-01-31T17:39:00;98120.97;;;4.67;68.18
9281;BME280;4679;47.966;7.958;2023-01-31T17:41:02;98122.41;;;4.70;67.69
9281;BME280;4679;47.966;7.958;2023-01-31T17:43:04;98124.41;;;4.68;68.09
9281;BME280;4679;47.966;7.958;2023-01-31T17:45:11;98129.84;;;4.66;67.33
9281;BME280;4679;47.966;7.958;2023-01-31T17:47:14;98128.03;;;4.67;68.03
9281;BME280;4679;47.966;7.958;2023-01-31T17:49:19;98130.66;;;4.67;67.96
9281;BME280;4679;47.966;7.958;2023-01-31T17:51:21;98111.44;;;4.66;68.18
9281;BME280;4679;47.966;7.958;2023-01-31T17:53:23;98115.72;;;4.67;68.24
9281;BME280;4679;47.966;7.958;2023-01-31T17:55:24;98109.63;;;4.67;67.99
9281;BME280;4679;47.966;7.958;2023-01-31T17:57:26;98103.19;;;4.69;68.07
9281;BME280;4679;47.966;7.958;2023-01-31T17:59:28;98095.50;;;4.68;68.60
9281;BME280;4679;47.966;7.958;2023-01-31T18:01:30;98111.25;;;4.68;67.86
9281;BME280;4679;47.966;7.958;2023-01-31T18:03:33;98110.09;;;4.70;68.53
9281;BME280;4679;47.966;7.958;2023-01-31T18:05:36;98122.25;;;4.71;68.33
9281;BME280;4679;47.966;7.958;2023-01-31T18:07:38;98122.41;;;4.70;68.61
9281;BME280;4679;47.966;7.958;2023-01-31T18:09:40;98127.50;;;4.71;68.61
9281;BME280;4679;47.966;7.958;2023-01-31T18:11:42;98119.63;;;4.71;69.10
9281;BME280;4679;47.966;7.958;2023-01-31T18:13:44;98130.94;;;4.72;68.04
9281;BME280;4679;47.966;7.958;2023-01-31T18:15:47;98130.75;;;4.73;68.50
9281;BME280;4679;47.966;7.958;2023-01-31T18:17:49;98138.00;;;4.71;68.91
9281;BME280;4679;47.966;7.958;2023-01-31T18:19:51;98131.94;;;4.71;68.76
9281;BME280;4679;47.966;7.958;2023-01-31T18:21:54;98131.94;;;4.71;68.38
9281;BME280;4679;47.966;7.958;2023-01-31T18:23:55;98134.75;;;4.69;69.03
9281;BME280;4679;47.966;7.958;2023-01-31T18:25:58;98142.44;;;4.71;68.32
9281;BME280;4679;47.966;7.958;2023-01-31T18:27:59;98136.38;;;4.70;68.58
9281;BME280;4679;47.966;7.958;2023-01-31T18:30:01;98141.63;;;4.70;69.31
9281;BME280;4679;47.966;7.958;2023-01-31T18:32:05;98146.34;;;4.75;68.81
9281;BME280;4679;47.966;7.958;2023-01-31T18:34:08;98138.44;;;4.75;69.32
9281;BME280;4679;47.966;7.958;2023-01-31T18:36:13;98144.53;;;4.75;68.60
9281;BME280;4679;47.966;7.958;2023-01-31T18:38:17;98139.25;;;4.75;68.60
9281;BME280;4679;47.966;7.958;2023-01-31T18:40:19;98146.16;;;4.76;68.81
9281;BME280;4679;47.966;7.958;2023-01-31T18:42:21;98141.06;;;4.75;68.92
9281;BME280;4679;47.966;7.958;2023-01-31T18:44:23;98138.44;;;4.75;68.37
9281;BME280;4679;47.966;7.958;2023-01-31T18:46:24;98139.91;;;4.77;68.35
9281;BME280;4679;47.966;7.958;2023-01-31T18:48:27;98141.72;;;4.77;68.87
9281;BME280;4679;47.966;7.958;2023-01-31T18:50:30;98134.81;;;4.76;68.94
9281;BME280;4679;47.966;7.958;2023-01-31T18:52:32;98131.19;;;4.77;69.00
9281;BME280;4679;47.966;7.958;2023-01-31T18:54:36;98127.56;;;4.78;68.75
9281;BME280;4679;47.966;7.958;2023-01-31T18:56:38;98124.94;;;4.78;68.25
9281;BME280;4679;47.966;7.958;2023-01-31T18:58:40;98115.41;;;4.77;68.16
9281;BME280;4679;47.966;7.958;2023-01-31T19:00:43;98124.13;;;4.77;68.16
9281;BME280;4679;47.966;7.958;2023-01-31T19:02:47;98132.00;;;4.77;68.81